CST1008 CYHZ-CYWK
Flight info
| Callsign | CST1008 |
|---|---|
| Flight time | 1h 14m |
| Altitude | 34000 |
| Route | YZV/N0456F350 DCT SHAIK |
| Aircraft | B38M/M-SDE1FGHILORVWXY/HB1 |
Departure
| Time | 2026-04-27 18:51 |
|---|---|
| Airport | Halifax / Stanfield International Airport (CYHZ) |
Arrival
| Time | 2026-04-27 20:05 |
|---|---|
| Airport | Wabush Airport (CYWK) |
| Time | Latitude | Longitude | Altitude | Speed | Heading |
|---|---|---|---|---|---|
| 2026-04-27 18:40 | 44.88553 | -63.51345 | 454 ft | 0 kts | 270° |
| 2026-04-27 18:45 | 44.88553 | -63.51318 | 454 ft | 4 kts | 270° |
| 2026-04-27 18:45 | 44.88554 | -63.51280 | 454 ft | 4 kts | 274° |
| 2026-04-27 18:45 | 44.88548 | -63.51244 | 454 ft | 4 kts | 298° |
| 2026-04-27 18:45 | 44.88532 | -63.51220 | 454 ft | 4 kts | 344° |
| 2026-04-27 18:46 | 44.88527 | -63.51219 | 454 ft | 1 kts | 350° |
| 2026-04-27 18:47 | 44.88532 | -63.51220 | 454 ft | 2 kts | 350° |
| 2026-04-27 18:47 | 44.88561 | -63.51227 | 454 ft | 7 kts | 350° |
| 2026-04-27 18:48 | 44.88616 | -63.51240 | 454 ft | 9 kts | 350° |
| 2026-04-27 18:48 | 44.88686 | -63.51257 | 454 ft | 11 kts | 350° |
| 2026-04-27 18:48 | 44.88771 | -63.51278 | 454 ft | 13 kts | 350° |
| 2026-04-27 18:48 | 44.88870 | -63.51302 | 454 ft | 15 kts | 350° |
| 2026-04-27 18:49 | 44.88981 | -63.51332 | 454 ft | 16 kts | 340° |
| 2026-04-27 18:49 | 44.89055 | -63.51447 | 453 ft | 17 kts | 303° |
| 2026-04-27 18:49 | 44.89129 | -63.51600 | 450 ft | 21 kts | 305° |
| 2026-04-27 18:49 | 44.89220 | -63.51775 | 448 ft | 22 kts | 316° |
| 2026-04-27 18:50 | 44.89331 | -63.51764 | 448 ft | 16 kts | 35° |
| 2026-04-27 18:50 | 44.89350 | -63.51697 | 447 ft | 5 kts | 109° |
| 2026-04-27 18:50 | 44.89330 | -63.51655 | 447 ft | 12 kts | 123° |
| 2026-04-27 18:50 | 44.89106 | -63.51210 | 442 ft | 98 kts | 125° |
| 2026-04-27 18:51 | 44.88577 | -63.50151 | 546 ft | 157 kts | 127° |
| 2026-04-27 18:51 | 44.87898 | -63.48840 | 1333 ft | 174 kts | 127° |
| 2026-04-27 18:51 | 44.87138 | -63.47480 | 2357 ft | 181 kts | 128° |
| 2026-04-27 18:51 | 44.86299 | -63.46056 | 2977 ft | 202 kts | 122° |
| 2026-04-27 18:52 | 44.85907 | -63.44047 | 3363 ft | 232 kts | 82° |
| 2026-04-27 18:52 | 44.86635 | -63.42064 | 4394 ft | 235 kts | 43° |
| 2026-04-27 18:52 | 44.88145 | -63.41049 | 5233 ft | 254 kts | 7° |
| 2026-04-27 18:53 | 44.91572 | -63.42494 | 7283 ft | 268 kts | 342° |
| 2026-04-27 18:53 | 44.92749 | -63.43075 | 7904 ft | 271 kts | 342° |
| 2026-04-27 18:53 | 44.94536 | -63.43955 | 8931 ft | 274 kts | 341° |
| 2026-04-27 18:53 | 44.96366 | -63.44844 | 9860 ft | 281 kts | 341° |
| 2026-04-27 18:54 | 44.98244 | -63.45745 | 10642 ft | 293 kts | 341° |
| 2026-04-27 18:54 | 45.00247 | -63.46676 | 11107 ft | 313 kts | 341° |
| 2026-04-27 18:54 | 45.02386 | -63.47653 | 11525 ft | 333 kts | 342° |
| 2026-04-27 18:54 | 45.04651 | -63.48680 | 11962 ft | 350 kts | 341° |
| 2026-04-27 18:55 | 45.07008 | -63.49761 | 12520 ft | 362 kts | 341° |
| 2026-04-27 18:55 | 45.09407 | -63.50879 | 13368 ft | 364 kts | 341° |
| 2026-04-27 18:55 | 45.11825 | -63.52034 | 14110 ft | 370 kts | 340° |
| 2026-04-27 18:55 | 45.14279 | -63.53208 | 14776 ft | 374 kts | 340° |
| 2026-04-27 18:56 | 45.16755 | -63.54409 | 15430 ft | 379 kts | 340° |
| 2026-04-27 18:56 | 45.19271 | -63.55629 | 16070 ft | 383 kts | 340° |
| 2026-04-27 18:56 | 45.21810 | -63.56861 | 16728 ft | 388 kts | 339° |
| 2026-04-27 18:56 | 45.24348 | -63.58091 | 17335 ft | 392 kts | 339° |
| 2026-04-27 18:57 | 45.26943 | -63.59357 | 17976 ft | 397 kts | 339° |
| 2026-04-27 18:57 | 45.29567 | -63.60631 | 18599 ft | 401 kts | 340° |
| 2026-04-27 18:57 | 45.32218 | -63.61924 | 19131 ft | 404 kts | 340° |
| 2026-04-27 18:57 | 45.34890 | -63.63229 | 19684 ft | 408 kts | 339° |
| 2026-04-27 18:58 | 45.37589 | -63.64547 | 20215 ft | 411 kts | 339° |
| 2026-04-27 18:58 | 45.40304 | -63.65875 | 20746 ft | 415 kts | 339° |
| 2026-04-27 18:58 | 45.43046 | -63.67219 | 21268 ft | 418 kts | 339° |
| 2026-04-27 18:58 | 45.45815 | -63.68577 | 21786 ft | 422 kts | 339° |
| 2026-04-27 18:59 | 45.48603 | -63.69946 | 22297 ft | 425 kts | 339° |
| 2026-04-27 18:59 | 45.51412 | -63.71326 | 22815 ft | 429 kts | 339° |
| 2026-04-27 18:59 | 45.54244 | -63.72720 | 23310 ft | 432 kts | 339° |
| 2026-04-27 18:59 | 45.57105 | -63.74130 | 23786 ft | 436 kts | 340° |
| 2026-04-27 19:00 | 45.59990 | -63.75549 | 24223 ft | 439 kts | 340° |
| 2026-04-27 19:00 | 45.62888 | -63.76975 | 24688 ft | 440 kts | 340° |
| 2026-04-27 19:00 | 45.65750 | -63.78397 | 25070 ft | 443 kts | 339° |
| 2026-04-27 19:00 | 45.68678 | -63.79843 | 25462 ft | 446 kts | 339° |
| 2026-04-27 19:01 | 45.71614 | -63.81303 | 25884 ft | 448 kts | 339° |
| 2026-04-27 19:01 | 45.74576 | -63.82766 | 26262 ft | 451 kts | 340° |
| 2026-04-27 19:01 | 45.77553 | -63.84251 | 26681 ft | 453 kts | 339° |
| 2026-04-27 19:01 | 45.80546 | -63.85735 | 27009 ft | 457 kts | 339° |
| 2026-04-27 19:02 | 45.83552 | -63.87237 | 27412 ft | 459 kts | 340° |
| 2026-04-27 19:02 | 45.86579 | -63.88740 | 27785 ft | 461 kts | 340° |
| 2026-04-27 19:02 | 45.89616 | -63.90261 | 28156 ft | 463 kts | 340° |
| 2026-04-27 19:02 | 45.92668 | -63.91778 | 28566 ft | 464 kts | 340° |
| 2026-04-27 19:03 | 45.95729 | -63.93320 | 28856 ft | 468 kts | 340° |
| 2026-04-27 19:03 | 45.98813 | -63.94857 | 29235 ft | 469 kts | 340° |
| 2026-04-27 19:03 | 46.01911 | -63.96420 | 29498 ft | 473 kts | 340° |
| 2026-04-27 19:03 | 46.03976 | -63.97450 | 29745 ft | 474 kts | 340° |
| 2026-04-27 19:04 | 46.08123 | -63.99546 | 30097 ft | 479 kts | 340° |
| 2026-04-27 19:04 | 46.11263 | -64.01121 | 30523 ft | 478 kts | 340° |
| 2026-04-27 19:04 | 46.14407 | -64.02721 | 30873 ft | 478 kts | 340° |
| 2026-04-27 19:04 | 46.17536 | -64.04317 | 31247 ft | 477 kts | 340° |
| 2026-04-27 19:05 | 46.20669 | -64.05905 | 31644 ft | 476 kts | 340° |
| 2026-04-27 19:05 | 46.23785 | -64.07501 | 32022 ft | 475 kts | 340° |
| 2026-04-27 19:05 | 46.26901 | -64.09082 | 32396 ft | 474 kts | 340° |
| 2026-04-27 19:05 | 46.30017 | -64.10678 | 32751 ft | 474 kts | 340° |
| 2026-04-27 19:06 | 46.33098 | -64.12263 | 33389 ft | 466 kts | 340° |
| 2026-04-27 19:06 | 46.36097 | -64.13821 | 33931 ft | 462 kts | 340° |
| 2026-04-27 19:06 | 46.39159 | -64.15397 | 34291 ft | 462 kts | 340° |
| 2026-04-27 19:07 | 46.45237 | -64.18484 | 34360 ft | 471 kts | 340° |
| 2026-04-27 19:07 | 46.51428 | -64.21639 | 34358 ft | 470 kts | 340° |
| 2026-04-27 19:08 | 46.57591 | -64.24805 | 34363 ft | 470 kts | 340° |
| 2026-04-27 19:08 | 46.63772 | -64.27981 | 34361 ft | 471 kts | 340° |
| 2026-04-27 19:09 | 46.69950 | -64.31165 | 34367 ft | 471 kts | 340° |
| 2026-04-27 19:09 | 46.76134 | -64.34355 | 34643 ft | 469 kts | 339° |
| 2026-04-27 19:09 | 46.79160 | -64.35939 | 35020 ft | 466 kts | 339° |
| 2026-04-27 19:10 | 46.82196 | -64.37533 | 35500 ft | 461 kts | 339° |
| 2026-04-27 19:10 | 46.85214 | -64.39114 | 35797 ft | 461 kts | 339° |
| 2026-04-27 19:10 | 46.88230 | -64.40686 | 36073 ft | 460 kts | 339° |
| 2026-04-27 19:10 | 46.90268 | -64.41749 | 36255 ft | 459 kts | 339° |
| 2026-04-27 19:11 | 46.94261 | -64.43830 | 36393 ft | 460 kts | 339° |
| 2026-04-27 19:11 | 47.00279 | -64.46970 | 36371 ft | 458 kts | 339° |
| 2026-04-27 19:12 | 47.06289 | -64.50110 | 36366 ft | 458 kts | 339° |
| 2026-04-27 19:12 | 47.12304 | -64.53260 | 36371 ft | 458 kts | 339° |
| 2026-04-27 19:13 | 47.18313 | -64.56417 | 36368 ft | 458 kts | 339° |
| 2026-04-27 19:13 | 47.24278 | -64.59557 | 36368 ft | 458 kts | 339° |
| 2026-04-27 19:14 | 47.30285 | -64.62727 | 36371 ft | 458 kts | 339° |
| 2026-04-27 19:14 | 47.36287 | -64.65904 | 36366 ft | 459 kts | 339° |
| 2026-04-27 19:15 | 47.42304 | -64.69089 | 36373 ft | 458 kts | 338° |
| 2026-04-27 19:15 | 47.48290 | -64.72275 | 36365 ft | 457 kts | 339° |
| 2026-04-27 19:16 | 47.54278 | -64.75465 | 36367 ft | 457 kts | 339° |
| 2026-04-27 19:16 | 47.60217 | -64.78642 | 36357 ft | 458 kts | 338° |
| 2026-04-27 19:17 | 47.66237 | -64.81861 | 36365 ft | 460 kts | 338° |
| 2026-04-27 19:17 | 47.72252 | -64.85087 | 36363 ft | 459 kts | 338° |
| 2026-04-27 19:18 | 47.78240 | -64.88313 | 36358 ft | 456 kts | 338° |
| 2026-04-27 19:18 | 47.84217 | -64.91537 | 36354 ft | 457 kts | 338° |
| 2026-04-27 19:19 | 47.90209 | -64.94777 | 36361 ft | 460 kts | 338° |
| 2026-04-27 19:19 | 47.96247 | -64.98038 | 36352 ft | 468 kts | 338° |
| 2026-04-27 19:20 | 48.02407 | -65.01378 | 36350 ft | 471 kts | 338° |
| 2026-04-27 19:20 | 48.08549 | -65.04725 | 36348 ft | 468 kts | 338° |
| 2026-04-27 19:21 | 48.14670 | -65.08070 | 36342 ft | 470 kts | 338° |
| 2026-04-27 19:21 | 48.20824 | -65.11439 | 36347 ft | 471 kts | 338° |
| 2026-04-27 19:22 | 48.26981 | -65.14820 | 36340 ft | 470 kts | 338° |
| 2026-04-27 19:22 | 48.33123 | -65.18202 | 36336 ft | 470 kts | 338° |
| 2026-04-27 19:23 | 48.39220 | -65.21566 | 36324 ft | 468 kts | 338° |
| 2026-04-27 19:23 | 48.45343 | -65.24954 | 36319 ft | 469 kts | 338° |
| 2026-04-27 19:24 | 48.51474 | -65.28356 | 36315 ft | 469 kts | 338° |
| 2026-04-27 19:24 | 48.57598 | -65.31762 | 36312 ft | 468 kts | 338° |
| 2026-04-27 19:25 | 48.63717 | -65.35173 | 36312 ft | 468 kts | 338° |
| 2026-04-27 19:25 | 48.69790 | -65.38569 | 36308 ft | 467 kts | 338° |
| 2026-04-27 19:26 | 48.75922 | -65.42006 | 36295 ft | 467 kts | 338° |
| 2026-04-27 19:26 | 48.81973 | -65.45407 | 36294 ft | 467 kts | 338° |
| 2026-04-27 19:27 | 48.88072 | -65.48844 | 36288 ft | 467 kts | 338° |
| 2026-04-27 19:27 | 48.94162 | -65.52285 | 36287 ft | 467 kts | 337° |
| 2026-04-27 19:28 | 49.00239 | -65.55723 | 36306 ft | 468 kts | 337° |
| 2026-04-27 19:28 | 49.06315 | -65.59176 | 36295 ft | 465 kts | 337° |
| 2026-04-27 19:29 | 49.12400 | -65.62641 | 36314 ft | 465 kts | 337° |
| 2026-04-27 19:29 | 49.18467 | -65.66104 | 36313 ft | 465 kts | 337° |
| 2026-04-27 19:30 | 49.24545 | -65.69584 | 36318 ft | 468 kts | 337° |
| 2026-04-27 19:30 | 49.30646 | -65.73084 | 36327 ft | 468 kts | 337° |
| 2026-04-27 19:31 | 49.36713 | -65.76574 | 36327 ft | 464 kts | 337° |
| 2026-04-27 19:31 | 49.42754 | -65.80060 | 36328 ft | 464 kts | 337° |
| 2026-04-27 19:32 | 49.48765 | -65.83537 | 36328 ft | 464 kts | 336° |
| 2026-04-27 19:32 | 49.54830 | -65.87055 | 36329 ft | 466 kts | 336° |
| 2026-04-27 19:33 | 49.60904 | -65.90586 | 36326 ft | 466 kts | 336° |
| 2026-04-27 19:33 | 49.66962 | -65.94117 | 36330 ft | 463 kts | 336° |
| 2026-04-27 19:34 | 49.72984 | -65.97639 | 36325 ft | 462 kts | 336° |
| 2026-04-27 19:34 | 49.78967 | -66.01146 | 36323 ft | 464 kts | 336° |
| 2026-04-27 19:35 | 49.85003 | -66.04693 | 36323 ft | 464 kts | 336° |
| 2026-04-27 19:35 | 49.91041 | -66.08252 | 36328 ft | 464 kts | 336° |
| 2026-04-27 19:36 | 49.97071 | -66.11814 | 36329 ft | 464 kts | 336° |
| 2026-04-27 19:36 | 50.03099 | -66.15386 | 36336 ft | 464 kts | 336° |
| 2026-04-27 19:37 | 50.09136 | -66.18972 | 36335 ft | 464 kts | 336° |
| 2026-04-27 19:37 | 50.15170 | -66.22566 | 36333 ft | 464 kts | 336° |
| 2026-04-27 19:38 | 50.21201 | -66.26169 | 36330 ft | 464 kts | 336° |
| 2026-04-27 19:38 | 50.24310 | -66.27551 | 36302 ft | 468 kts | 350° |
| 2026-04-27 19:38 | 50.27562 | -66.28039 | 36338 ft | 470 kts | 350° |
| 2026-04-27 19:39 | 50.34012 | -66.29335 | 36352 ft | 471 kts | 349° |
| 2026-04-27 19:39 | 50.40482 | -66.30649 | 36328 ft | 467 kts | 349° |
| 2026-04-27 19:40 | 50.45888 | -66.31749 | 36320 ft | 468 kts | 349° |
| 2026-04-27 19:40 | 50.52294 | -66.33056 | 36314 ft | 467 kts | 349° |
| 2026-04-27 19:41 | 50.58751 | -66.34378 | 36298 ft | 468 kts | 349° |
| 2026-04-27 19:41 | 50.65224 | -66.35705 | 36286 ft | 469 kts | 349° |
| 2026-04-27 19:42 | 50.71702 | -66.37038 | 36274 ft | 469 kts | 349° |
| 2026-04-27 19:42 | 50.78170 | -66.38372 | 36277 ft | 469 kts | 349° |
| 2026-04-27 19:43 | 50.84624 | -66.39707 | 36321 ft | 465 kts | 349° |
| 2026-04-27 19:43 | 50.91044 | -66.41039 | 36256 ft | 464 kts | 349° |
| 2026-04-27 19:44 | 50.97453 | -66.42373 | 36255 ft | 465 kts | 349° |
| 2026-04-27 19:44 | 51.03835 | -66.43704 | 36253 ft | 465 kts | 349° |
| 2026-04-27 19:45 | 51.10249 | -66.45046 | 36248 ft | 465 kts | 349° |
| 2026-04-27 19:45 | 51.16668 | -66.46393 | 36255 ft | 465 kts | 349° |
| 2026-04-27 19:46 | 51.23081 | -66.47742 | 36242 ft | 464 kts | 349° |
| 2026-04-27 19:46 | 51.29469 | -66.49090 | 35519 ft | 460 kts | 348° |
| 2026-04-27 19:46 | 51.32641 | -66.49761 | 34686 ft | 461 kts | 348° |
| 2026-04-27 19:47 | 51.35823 | -66.50435 | 33473 ft | 462 kts | 348° |
| 2026-04-27 19:47 | 51.38963 | -66.51100 | 32311 ft | 461 kts | 348° |
| 2026-04-27 19:47 | 51.42154 | -66.51777 | 31511 ft | 462 kts | 348° |
| 2026-04-27 19:47 | 51.45339 | -66.52453 | 30887 ft | 460 kts | 348° |
| 2026-04-27 19:48 | 51.48510 | -66.53128 | 30158 ft | 461 kts | 348° |
| 2026-04-27 19:48 | 51.51705 | -66.53808 | 29142 ft | 465 kts | 348° |
| 2026-04-27 19:48 | 51.54917 | -66.54484 | 28284 ft | 465 kts | 350° |
| 2026-04-27 19:48 | 51.58161 | -66.54944 | 27244 ft | 470 kts | 352° |
| 2026-04-27 19:49 | 51.61410 | -66.55394 | 26429 ft | 468 kts | 351° |
| 2026-04-27 19:49 | 51.64659 | -66.55854 | 25536 ft | 468 kts | 351° |
| 2026-04-27 19:49 | 51.67910 | -66.56320 | 24537 ft | 468 kts | 351° |
| 2026-04-27 19:49 | 51.71101 | -66.56781 | 23494 ft | 455 kts | 351° |
| 2026-04-27 19:50 | 51.74224 | -66.57234 | 22192 ft | 447 kts | 351° |
| 2026-04-27 19:50 | 51.77295 | -66.57680 | 20975 ft | 439 kts | 351° |
| 2026-04-27 19:50 | 51.80311 | -66.58119 | 19848 ft | 432 kts | 351° |
| 2026-04-27 19:50 | 51.83279 | -66.58552 | 18792 ft | 424 kts | 351° |
| 2026-04-27 19:51 | 51.86184 | -66.58977 | 17987 ft | 411 kts | 351° |
| 2026-04-27 19:51 | 51.88978 | -66.59385 | 17376 ft | 395 kts | 351° |
| 2026-04-27 19:51 | 51.91708 | -66.59786 | 16771 ft | 393 kts | 351° |
| 2026-04-27 19:51 | 51.94428 | -66.60185 | 16072 ft | 394 kts | 351° |
| 2026-04-27 19:52 | 51.97122 | -66.60580 | 15473 ft | 393 kts | 351° |
| 2026-04-27 19:52 | 51.99838 | -66.60980 | 14918 ft | 390 kts | 351° |
| 2026-04-27 19:52 | 52.02539 | -66.61378 | 14361 ft | 388 kts | 352° |
| 2026-04-27 19:52 | 52.05219 | -66.61773 | 13788 ft | 385 kts | 352° |
| 2026-04-27 19:53 | 52.10520 | -66.62556 | 12673 ft | 379 kts | 352° |
| 2026-04-27 19:53 | 52.13134 | -66.62942 | 12171 ft | 375 kts | 352° |
| 2026-04-27 19:53 | 52.15716 | -66.63325 | 11811 ft | 368 kts | 351° |
| 2026-04-27 19:54 | 52.18223 | -66.63697 | 11644 ft | 355 kts | 351° |
| 2026-04-27 19:54 | 52.20645 | -66.64056 | 11466 ft | 345 kts | 351° |
| 2026-04-27 19:54 | 52.23003 | -66.64406 | 11280 ft | 334 kts | 351° |
| 2026-04-27 19:54 | 52.25277 | -66.64744 | 11121 ft | 323 kts | 351° |
| 2026-04-27 19:55 | 52.27483 | -66.65072 | 10983 ft | 313 kts | 351° |
| 2026-04-27 19:55 | 52.29624 | -66.65392 | 10833 ft | 305 kts | 351° |
| 2026-04-27 19:55 | 52.31683 | -66.65699 | 10685 ft | 296 kts | 351° |
| 2026-04-27 19:55 | 52.33706 | -66.66001 | 10543 ft | 288 kts | 351° |
| 2026-04-27 19:56 | 52.35675 | -66.66295 | 10408 ft | 280 kts | 350° |
| 2026-04-27 19:56 | 52.37626 | -66.66587 | 10293 ft | 282 kts | 350° |
| 2026-04-27 19:56 | 52.39586 | -66.66881 | 10143 ft | 283 kts | 351° |
| 2026-04-27 19:56 | 52.41546 | -66.67175 | 9863 ft | 283 kts | 351° |
| 2026-04-27 19:57 | 52.43516 | -66.67470 | 9537 ft | 283 kts | 351° |
| 2026-04-27 19:57 | 52.45474 | -66.67764 | 9225 ft | 282 kts | 351° |
| 2026-04-27 19:57 | 52.47419 | -66.68056 | 8935 ft | 280 kts | 351° |
| 2026-04-27 19:57 | 52.49362 | -66.68348 | 8650 ft | 280 kts | 351° |
| 2026-04-27 19:58 | 52.51276 | -66.68636 | 8350 ft | 279 kts | 351° |
| 2026-04-27 19:58 | 52.53208 | -66.68927 | 8066 ft | 278 kts | 351° |
| 2026-04-27 19:58 | 52.55129 | -66.69217 | 7797 ft | 276 kts | 351° |
| 2026-04-27 19:58 | 52.57031 | -66.69504 | 7665 ft | 274 kts | 351° |
| 2026-04-27 19:59 | 52.58933 | -66.69791 | 7536 ft | 274 kts | 351° |
| 2026-04-27 19:59 | 52.60827 | -66.70076 | 7403 ft | 273 kts | 352° |
| 2026-04-27 19:59 | 52.62716 | -66.70335 | 7251 ft | 272 kts | 350° |
| 2026-04-27 19:59 | 52.64577 | -66.70825 | 7113 ft | 270 kts | 345° |
| 2026-04-27 20:00 | 52.66405 | -66.71522 | 6857 ft | 269 kts | 342° |
| 2026-04-27 20:00 | 52.68207 | -66.72363 | 6515 ft | 267 kts | 340° |
| 2026-04-27 20:00 | 52.69967 | -66.73283 | 6138 ft | 264 kts | 338° |
| 2026-04-27 20:00 | 52.71687 | -66.74236 | 5778 ft | 257 kts | 338° |
| 2026-04-27 20:01 | 52.73342 | -66.75193 | 5424 ft | 247 kts | 338° |
| 2026-04-27 20:01 | 52.74937 | -66.76122 | 5092 ft | 240 kts | 338° |
| 2026-04-27 20:01 | 52.76469 | -66.77024 | 4771 ft | 234 kts | 336° |
| 2026-04-27 20:01 | 52.77980 | -66.77920 | 4546 ft | 224 kts | 335° |
| 2026-04-27 20:02 | 52.79389 | -66.78758 | 4529 ft | 205 kts | 335° |
| 2026-04-27 20:02 | 52.80660 | -66.79514 | 4512 ft | 184 kts | 335° |
| 2026-04-27 20:02 | 52.81820 | -66.80204 | 4249 ft | 174 kts | 334° |
| 2026-04-27 20:02 | 52.82949 | -66.80879 | 3687 ft | 171 kts | 335° |
| 2026-04-27 20:03 | 52.84035 | -66.81553 | 3249 ft | 161 kts | 334° |
| 2026-04-27 20:03 | 52.85003 | -66.82111 | 3254 ft | 138 kts | 334° |
| 2026-04-27 20:03 | 52.85891 | -66.82636 | 3012 ft | 131 kts | 332° |
| 2026-04-27 20:03 | 52.86757 | -66.83163 | 2815 ft | 134 kts | 333° |
| 2026-04-27 20:04 | 52.87652 | -66.83700 | 2633 ft | 141 kts | 335° |
| 2026-04-27 20:04 | 52.88610 | -66.84275 | 2398 ft | 151 kts | 336° |
| 2026-04-27 20:04 | 52.89612 | -66.84868 | 2241 ft | 154 kts | 334° |
| 2026-04-27 20:04 | 52.90617 | -66.85473 | 2072 ft | 156 kts | 334° |
| 2026-04-27 20:05 | 52.91625 | -66.86073 | 1835 ft | 152 kts | 335° |
| 2026-04-27 20:05 | 52.92481 | -66.86592 | 1798 ft | 97 kts | 341° |
| 2026-04-27 20:05 | 52.92905 | -66.86839 | 1800 ft | 33 kts | 340° |
| 2026-04-27 20:05 | 52.93014 | -66.86984 | 1798 ft | 15 kts | 264° |
| 2026-04-27 20:06 | 52.92944 | -66.87089 | 1798 ft | 14 kts | 207° |
| 2026-04-27 20:06 | 52.92854 | -66.87160 | 1797 ft | 15 kts | 205° |
| 2026-04-27 20:06 | 52.92757 | -66.87202 | 1799 ft | 14 kts | 181° |
| 2026-04-27 20:06 | 52.92708 | -66.87187 | 1800 ft | 0 kts | 171° |
| 2026-04-27 20:07 | 52.92703 | -66.87189 | 1800 ft | 1 kts | 202° |
| 2026-04-27 20:07 | 52.92683 | -66.87187 | 1799 ft | 3 kts | 162° |
| 2026-04-27 20:07 | 52.92666 | -66.87171 | 1800 ft | 4 kts | 162° |
| 2026-04-27 20:07 | 52.92650 | -66.87176 | 1801 ft | 1 kts | 226° |
| 2026-04-27 20:08 | 52.92650 | -66.87181 | 1801 ft | 1 kts | 259° |
| 2026-04-27 20:08 | 52.92645 | -66.87206 | 1800 ft | 3 kts | 253° |
| 2026-04-27 20:08 | 52.92644 | -66.87211 | 1800 ft | 0 kts | 253° |